Sipu Muin — CHCGA — position and weather

sailwx.info

Track history (hours):
 
Tides and Currents Weather Stations Pressure Air Temp Water Temp Dewpoint Dewpoint Depression Visibility Wind Speed Wind Dir Waves Ship Positions

Sipu Muin

Last reported at 2014-Sep-09 18:33 UTC. Time now 2014-Sep-23 12:26 UTC.
Position N 46°19' W 072°34'.
Warning: this ship's position is 13 days out of date.

Type: High speed craft. MMSI: 316001988.

Date/timePositionNaut miles runAvg speedWind from/ knotsBaromVisibWave heightAir tempDewpointWater temp
2014-Sep-09 18:33N 46°19' W 072°34'0 0.0
2014-Sep-09 17:33N 46°19' W 072°34'0 0.0
2014-Sep-09 16:33N 46°19' W 072°34'1 0.4
2014-Sep-09 13:34N 46°18' W 072°35'  
2014-Sep-05 17:33N 46°14' W 072°42'3627.5
2014-Sep-05 16:14N 45°50' W 073°20'1014.7
2014-Sep-05 15:33N 45°41' W 073°27'0 0.0
2014-Sep-05 14:33N 45°41' W 073°27'6 6.2
2014-Sep-05 13:33N 45°35' W 073°29'0 0.0
2014-Sep-05 12:33N 45°35' W 073°29'3 0.2
2014-Sep-04 19:34N 45°32' W 073°32'10 4.8
2014-Sep-04 17:32N 45°25' W 073°41'4 3.9
2014-Sep-04 16:33N 45°24' W 073°46'2 1.4
2014-Sep-04 15:05N 45°24' W 073°43'3 4.7
2014-Sep-04 14:33N 45°25' W 073°40'1212.5
2014-Sep-04 13:33N 45°35' W 073°29'0 0.0
2014-Sep-04 12:33N 45°35' W 073°29'0 0.0
2014-Sep-03 19:27N 45°35' W 073°29'2 1.8
2014-Sep-03 18:33N 45°34' W 073°31'2 1.5
2014-Sep-03 17:30N 45°35' W 073°29'0 0.0
2014-Sep-03 16:31N 45°35' W 073°29'0 0.0
2014-Sep-03 15:33N 45°35' W 073°29'4 3.6
2014-Sep-03 14:34N 45°39' W 073°28'4838.2
2014-Sep-03 13:18N 46°15' W 072°44'  
Track history (hours):
 
Tides and Currents Weather Stations Pressure Air Temp Water Temp Dewpoint Dewpoint Depression Visibility Wind Speed Wind Dir Waves Ship Positions

Sipu Muin

Last reported at 2014-Sep-09 18:33 UTC. Time now 2014-Sep-23 12:26 UTC.
Position N 46°19' W 072°34'.
Warning: this ship's position is 13 days out of date.

Type: High speed craft. MMSI: 316001988.

Date/timePositionNaut miles runAvg speedWind from/ knotsBaromVisibWave heightAir tempDewpointWater temp
2014-Sep-09 18:33N 46°19' W 072°34'0 0.0
2014-Sep-09 17:33N 46°19' W 072°34'0 0.0
2014-Sep-09 16:33N 46°19' W 072°34'1 0.4
2014-Sep-09 13:34N 46°18' W 072°35'  
2014-Sep-05 17:33N 46°14' W 072°42'3627.5
2014-Sep-05 16:14N 45°50' W 073°20'1014.7
2014-Sep-05 15:33N 45°41' W 073°27'0 0.0
2014-Sep-05 14:33N 45°41' W 073°27'6 6.2
2014-Sep-05 13:33N 45°35' W 073°29'0 0.0
2014-Sep-05 12:33N 45°35' W 073°29'3 0.2
2014-Sep-04 19:34N 45°32' W 073°32'10 4.8
2014-Sep-04 17:32N 45°25' W 073°41'4 3.9
2014-Sep-04 16:33N 45°24' W 073°46'2 1.4
2014-Sep-04 15:05N 45°24' W 073°43'3 4.7
2014-Sep-04 14:33N 45°25' W 073°40'1212.5
2014-Sep-04 13:33N 45°35' W 073°29'0 0.0
2014-Sep-04 12:33N 45°35' W 073°29'0 0.0
2014-Sep-03 19:27N 45°35' W 073°29'2 1.8
2014-Sep-03 18:33N 45°34' W 073°31'2 1.5
2014-Sep-03 17:30N 45°35' W 073°29'0 0.0
2014-Sep-03 16:31N 45°35' W 073°29'0 0.0
2014-Sep-03 15:33N 45°35' W 073°29'4 3.6
2014-Sep-03 14:34N 45°39' W 073°28'4838.2
2014-Sep-03 13:18N 46°15' W 072°44'  

Dump ship's entire track history